Florida City, Florida
Current Conditions -  °F | °C
As of 10:58 PM on Friday 24 Oct 2014 (Local Time) from KHST Reporting Station
Few Clouds Few Clouds  
Wind Chill: 74°   Ceiling: Unl
Heat Index: 74°   Visibility: 10mi
Dew Point: 70°   Wind: 10mph
Humidity: 87%   Direction: 340°NNW
Pressure: 29.85"   Gusts: NA
Location:  25.456°N, 80.4546°W
Report Text: KHST 250258Z AUTO 34009KT 10SM FEW028 23/21 A2985 RMK AO2 SLP111 60000 T02310209 52012
Loading
Personal Weather Stations






























Interactive Weather Map
Tropical Storm Tracking
New forecast layout! Learn more

10-Day Weather Forecast

Advertisements
Track Severe Weather on mobile